CNUK1: Grand River, Chanute

Data processed at Fri Mar 09 2018 23:36


All information presented herein is the property of the government of the United States of America and may be revised or deleted at any time without prior notice.
Dissemination of this information without the expressed written consent of the Public Affairs Office, Tulsa District U.S. Army Corps of Engineers is strictly prohibited.
These data are gathered electronically and, as presented, have not undergone any form of quality control. These data are not guaranteed to be valid or correct.
Go to home page.
Go to station list.

Upstream stations:

Downstream station:
Previous Day
Next Day
Current Day
    
SHEF ID:       CNUK1     NEOSHO R NR CHANUTE, KS
STATION TYPE:  

               PRECIP     STAGE  RIV-FLOW   VOLTAGE  BAT-LOAD
                   in        ft       cfs      volt      volt
              Ccp-Rev   Ccp-Rev   Ccp-Rev   Ccp-Rev   Ccp-Rev
(US/Central)
03/07 00:00      0.00      8.03       244     12.65     12.49
03/07 01:00      0.00      8.02       238     12.65     12.49
03/07 02:00      0.00      8.01       232     12.65     12.41
03/07 03:00      0.00      8.02       238     12.57     12.41
03/07 04:00      0.00      8.02       238     12.57     12.41
03/07 05:00      0.00      8.01       232     12.57     12.41
03/07 06:00      0.00      8.01       232     12.57     12.41
03/07 07:00      0.00      8.00       226     12.57     12.41
03/07 08:00      0.00      7.98       214     12.73     12.41
03/07 09:00      0.00      7.96       201     13.13     12.73
03/07 10:00      0.00      7.96       201     13.53     13.29
03/07 11:00      0.00      7.94       189     13.53     13.44
03/07 12:00      0.00      7.93       183     14.16     13.60
03/07 13:00      0.00      7.91       171     13.44     13.60
03/07 14:00      0.00      7.88       160     14.00     13.60
03/07 15:00      0.00      7.90       165     13.84     13.53
03/07 16:00      0.00      7.91       171     13.53     13.44
03/07 17:00      0.00      7.90       165     13.84     13.44
03/07 18:00      0.00      7.90       165     13.21     13.37
03/07 19:00      0.00      7.90       165     12.89     12.73
03/07 20:00      0.00      7.89       163     12.73     12.65
03/07 21:00      0.00      7.89       163     12.73     12.65
03/07 22:00      0.00      7.87       158     12.65     12.57
03/07 23:00      0.00      7.87       158     12.73     12.57